sensor_id;sensor_type;location;lat;lon;timestamp;temperature;humidity
9383;DHT22;4731;49.708;10.816;2023-09-30T00:01:45;15.10;99.90
9383;DHT22;4731;49.708;10.816;2023-09-30T00:04:12;15.10;99.90
9383;DHT22;4731;49.708;10.816;2023-09-30T00:06:39;15.10;99.90
9383;DHT22;4731;49.708;10.816;2023-09-30T00:09:05;15.10;99.90
9383;DHT22;4731;49.708;10.816;2023-09-30T00:11:34;15.20;99.90
9383;DHT22;4731;49.708;10.816;2023-09-30T00:14:01;15.20;99.90
9383;DHT22;4731;49.708;10.816;2023-09-30T00:16:28;16.20;99.90
9383;DHT22;4731;49.708;10.816;2023-09-30T00:18:54;15.30;99.90
9383;DHT22;4731;49.708;10.816;2023-09-30T00:21:21;15.20;99.90
9383;DHT22;4731;49.708;10.816;2023-09-30T00:23:48;15.20;99.90
9383;DHT22;4731;49.708;10.816;2023-09-30T00:26:15;17.20;99.90
9383;DHT22;4731;49.708;10.816;2023-09-30T00:28:43;15.30;99.90
9383;DHT22;4731;49.708;10.816;2023-09-30T00:31:10;15.40;99.90
9383;DHT22;4731;49.708;10.816;2023-09-30T00:33:37;15.40;99.90
9383;DHT22;4731;49.708;10.816;2023-09-30T00:36:08;15.50;99.90
9383;DHT22;4731;49.708;10.816;2023-09-30T00:38:35;15.60;99.90
9383;DHT22;4731;49.708;10.816;2023-09-30T00:41:02;16.70;99.90
9383;DHT22;4731;49.708;10.816;2023-09-30T00:43:29;15.80;99.90
9383;DHT22;4731;49.708;10.816;2023-09-30T00:46:02;15.90;99.90
9383;DHT22;4731;49.708;10.816;2023-09-30T00:48:33;15.90;99.90
9383;DHT22;4731;49.708;10.816;2023-09-30T00:51:00;16.00;99.90
9383;DHT22;4731;49.708;10.816;2023-09-30T00:53:27;16.00;99.90
9383;DHT22;4731;49.708;10.816;2023-09-30T00:55:55;16.00;99.90
9383;DHT22;4731;49.708;10.816;2023-09-30T00:58:23;16.10;99.90
9383;DHT22;4731;49.708;10.816;2023-09-30T01:00:52;16.10;99.90
9383;DHT22;4731;49.708;10.816;2023-09-30T01:03:21;17.00;99.90
9383;DHT22;4731;49.708;10.816;2023-09-30T01:05:48;16.10;99.90
9383;DHT22;4731;49.708;10.816;2023-09-30T01:08:16;18.40;99.90
9383;DHT22;4731;49.708;10.816;2023-09-30T01:10:43;16.10;99.90
9383;DHT22;4731;49.708;10.816;2023-09-30T01:13:10;16.20;99.90
9383;DHT22;4731;49.708;10.816;2023-09-30T01:15:37;18.40;99.90
9383;DHT22;4731;49.708;10.816;2023-09-30T01:18:04;16.30;99.90
9383;DHT22;4731;49.708;10.816;2023-09-30T01:20:32;16.30;99.90
9383;DHT22;4731;49.708;10.816;2023-09-30T01:23:02;17.30;99.90
9383;DHT22;4731;49.708;10.816;2023-09-30T01:25:29;16.20;99.90
9383;DHT22;4731;49.708;10.816;2023-09-30T01:27:56;16.20;99.90
9383;DHT22;4731;49.708;10.816;2023-09-30T01:30:25;16.10;99.90
9383;DHT22;4731;49.708;10.816;2023-09-30T01:32:52;16.10;99.90
9383;DHT22;4731;49.708;10.816;2023-09-30T01:35:19;16.00;99.90
9383;DHT22;4731;49.708;10.816;2023-09-30T01:37:47;17.80;99.90
9383;DHT22;4731;49.708;10.816;2023-09-30T01:40:15;16.90;99.90
9383;DHT22;4731;49.708;10.816;2023-09-30T01:42:43;15.90;99.90
9383;DHT22;4731;49.708;10.816;2023-09-30T01:45:10;15.90;99.90
9383;DHT22;4731;49.708;10.816;2023-09-30T01:47:37;15.80;99.90
9383;DHT22;4731;49.708;10.816;2023-09-30T01:50:05;16.40;99.90
9383;DHT22;4731;49.708;10.816;2023-09-30T01:52:32;15.80;99.90
9383;DHT22;4731;49.708;10.816;2023-09-30T01:54:59;16.60;99.90
9383;DHT22;4731;49.708;10.816;2023-09-30T01:57:27;17.70;99.90
9383;DHT22;4731;49.708;10.816;2023-09-30T01:59:54;15.80;99.90
9383;DHT22;4731;49.708;10.816;2023-09-30T02:02:20;15.80;99.90
9383;DHT22;4731;49.708;10.816;2023-09-30T02:04:47;15.70;99.90
9383;DHT22;4731;49.708;10.816;2023-09-30T02:07:14;15.70;99.90
9383;DHT22;4731;49.708;10.816;2023-09-30T02:09:40;15.70;99.90
9383;DHT22;4731;49.708;10.816;2023-09-30T02:12:07;17.60;99.90
9383;DHT22;4731;49.708;10.816;2023-09-30T02:14:37;15.70;99.90
9383;DHT22;4731;49.708;10.816;2023-09-30T02:17:04;15.70;99.90
9383;DHT22;4731;49.708;10.816;2023-09-30T02:19:31;16.30;99.90
9383;DHT22;4731;49.708;10.816;2023-09-30T02:21:59;17.30;99.90
9383;DHT22;4731;49.708;10.816;2023-09-30T02:24:26;15.70;99.90
9383;DHT22;4731;49.708;10.816;2023-09-30T02:26:53;15.70;99.90
9383;DHT22;4731;49.708;10.816;2023-09-30T02:29:19;15.60;99.90
9383;DHT22;4731;49.708;10.816;2023-09-30T02:31:47;15.60;99.90
9383;DHT22;4731;49.708;10.816;2023-09-30T02:34:14;15.50;99.90
9383;DHT22;4731;49.708;10.816;2023-09-30T02:36:41;16.10;99.90
9383;DHT22;4731;49.708;10.816;2023-09-30T02:39:08;15.50;99.90
9383;DHT22;4731;49.708;10.816;2023-09-30T02:41:35;15.40;99.90
9383;DHT22;4731;49.708;10.816;2023-09-30T02:44:03;16.20;99.90
9383;DHT22;4731;49.708;10.816;2023-09-30T02:46:30;15.40;99.90
9383;DHT22;4731;49.708;10.816;2023-09-30T02:49:01;15.40;99.90
9383;DHT22;4731;49.708;10.816;2023-09-30T02:51:27;16.00;99.90
9383;DHT22;4731;49.708;10.816;2023-09-30T02:53:55;16.10;99.90
9383;DHT22;4731;49.708;10.816;2023-09-30T02:56:22;15.30;99.90
9383;DHT22;4731;49.708;10.816;2023-09-30T02:58:50;15.30;99.90
9383;DHT22;4731;49.708;10.816;2023-09-30T03:01:17;15.90;99.90
9383;DHT22;4731;49.708;10.816;2023-09-30T03:03:46;15.20;99.90
9383;DHT22;4731;49.708;10.816;2023-09-30T03:06:14;15.10;99.90
9383;DHT22;4731;49.708;10.816;2023-09-30T03:08:41;15.10;99.90
9383;DHT22;4731;49.708;10.816;2023-09-30T03:11:07;16.60;99.90
9383;DHT22;4731;49.708;10.816;2023-09-30T03:13:34;15.10;99.90
9383;DHT22;4731;49.708;10.816;2023-09-30T03:16:01;15.00;99.90
9383;DHT22;4731;49.708;10.816;2023-09-30T03:18:28;15.10;99.90
9383;DHT22;4731;49.708;10.816;2023-09-30T03:20:59;16.60;99.90
9383;DHT22;4731;49.708;10.816;2023-09-30T03:23:28;15.90;99.90
9383;DHT22;4731;49.708;10.816;2023-09-30T03:25:56;14.90;99.90
9383;DHT22;4731;49.708;10.816;2023-09-30T03:28:23;15.20;99.90
9383;DHT22;4731;49.708;10.816;2023-09-30T03:30:50;14.80;99.90
9383;DHT22;4731;49.708;10.816;2023-09-30T03:33:17;14.80;99.90
9383;DHT22;4731;49.708;10.816;2023-09-30T03:35:44;14.80;99.90
9383;DHT22;4731;49.708;10.816;2023-09-30T03:38:11;15.10;99.90
9383;DHT22;4731;49.708;10.816;2023-09-30T03:40:40;14.70;99.90
9383;DHT22;4731;49.708;10.816;2023-09-30T03:43:10;14.60;99.90
9383;DHT22;4731;49.708;10.816;2023-09-30T03:45:37;15.80;99.90
9383;DHT22;4731;49.708;10.816;2023-09-30T03:48:05;14.60;99.90
9383;DHT22;4731;49.708;10.816;2023-09-30T03:50:32;14.60;99.90
9383;DHT22;4731;49.708;10.816;2023-09-30T03:53:01;14.70;99.90
9383;DHT22;4731;49.708;10.816;2023-09-30T03:55:28;14.70;99.90
9383;DHT22;4731;49.708;10.816;2023-09-30T03:57:57;14.70;99.90
9383;DHT22;4731;49.708;10.816;2023-09-30T04:00:24;16.50;99.90
9383;DHT22;4731;49.708;10.816;2023-09-30T04:02:51;14.60;99.90
9383;DHT22;4731;49.708;10.816;2023-09-30T04:05:23;14.60;99.90
9383;DHT22;4731;49.708;10.816;2023-09-30T04:07:54;14.60;99.90
9383;DHT22;4731;49.708;10.816;2023-09-30T04:10:21;14.60;99.90
9383;DHT22;4731;49.708;10.816;2023-09-30T04:12:49;14.60;99.90
9383;DHT22;4731;49.708;10.816;2023-09-30T04:15:17;14.60;99.90
9383;DHT22;4731;49.708;10.816;2023-09-30T04:17:44;14.70;99.90
9383;DHT22;4731;49.708;10.816;2023-09-30T04:20:11;15.00;99.90
9383;DHT22;4731;49.708;10.816;2023-09-30T04:22:44;14.70;99.90
9383;DHT22;4731;49.708;10.816;2023-09-30T04:25:14;14.70;99.90
9383;DHT22;4731;49.708;10.816;2023-09-30T04:27:42;14.70;99.90
9383;DHT22;4731;49.708;10.816;2023-09-30T04:30:12;14.70;99.90
9383;DHT22;4731;49.708;10.816;2023-09-30T04:32:42;14.70;99.90
9383;DHT22;4731;49.708;10.816;2023-09-30T04:35:09;14.70;99.90
9383;DHT22;4731;49.708;10.816;2023-09-30T04:37:36;14.70;99.90
9383;DHT22;4731;49.708;10.816;2023-09-30T04:40:04;14.70;99.90
9383;DHT22;4731;49.708;10.816;2023-09-30T04:42:33;14.70;99.90
9383;DHT22;4731;49.708;10.816;2023-09-30T04:45:02;15.60;99.90
9383;DHT22;4731;49.708;10.816;2023-09-30T04:47:31;15.20;99.90
9383;DHT22;4731;49.708;10.816;2023-09-30T04:50:00;16.70;99.90
9383;DHT22;4731;49.708;10.816;2023-09-30T04:52:30;14.60;99.90
9383;DHT22;4731;49.708;10.816;2023-09-30T04:54:57;14.60;99.90
9383;DHT22;4731;49.708;10.816;2023-09-30T04:57:25;14.60;99.90
9383;DHT22;4731;49.708;10.816;2023-09-30T04:59:52;14.60;99.90
9383;DHT22;4731;49.708;10.816;2023-09-30T05:02:19;14.70;99.90
9383;DHT22;4731;49.708;10.816;2023-09-30T05:04:46;14.70;99.90
9383;DHT22;4731;49.708;10.816;2023-09-30T05:07:14;16.40;99.90
9383;DHT22;4731;49.708;10.816;2023-09-30T05:09:41;14.70;99.90
9383;DHT22;4731;49.708;10.816;2023-09-30T05:12:08;15.60;99.90
9383;DHT22;4731;49.708;10.816;2023-09-30T05:14:35;14.60;99.90
9383;DHT22;4731;49.708;10.816;2023-09-30T05:17:04;15.00;99.90
9383;DHT22;4731;49.708;10.816;2023-09-30T05:19:31;14.60;99.90
9383;DHT22;4731;49.708;10.816;2023-09-30T05:21:58;14.60;99.90
9383;DHT22;4731;49.708;10.816;2023-09-30T05:24:27;14.80;99.90
9383;DHT22;4731;49.708;10.816;2023-09-30T05:26:54;14.70;99.90
9383;DHT22;4731;49.708;10.816;2023-09-30T05:29:21;15.40;99.90
9383;DHT22;4731;49.708;10.816;2023-09-30T05:31:48;14.70;99.90
9383;DHT22;4731;49.708;10.816;2023-09-30T05:34:15;14.70;99.90
9383;DHT22;4731;49.708;10.816;2023-09-30T05:36:42;16.80;99.90
9383;DHT22;4731;49.708;10.816;2023-09-30T05:39:09;14.70;99.90
9383;DHT22;4731;49.708;10.816;2023-09-30T05:41:39;14.60;99.90
9383;DHT22;4731;49.708;10.816;2023-09-30T05:44:07;14.60;99.90
9383;DHT22;4731;49.708;10.816;2023-09-30T05:46:34;14.70;99.90
9383;DHT22;4731;49.708;10.816;2023-09-30T05:49:01;14.70;99.90
9383;DHT22;4731;49.708;10.816;2023-09-30T05:51:35;14.70;99.90
9383;DHT22;4731;49.708;10.816;2023-09-30T05:54:02;14.60;99.90
9383;DHT22;4731;49.708;10.816;2023-09-30T05:56:30;14.60;99.90
9383;DHT22;4731;49.708;10.816;2023-09-30T05:58:59;14.60;99.90
9383;DHT22;4731;49.708;10.816;2023-09-30T06:01:26;14.50;99.90
9383;DHT22;4731;49.708;10.816;2023-09-30T06:03:53;14.50;99.90
9383;DHT22;4731;49.708;10.816;2023-09-30T06:06:20;14.50;99.90
9383;DHT22;4731;49.708;10.816;2023-09-30T06:08:49;14.50;99.90
9383;DHT22;4731;49.708;10.816;2023-09-30T06:11:16;15.30;99.90
9383;DHT22;4731;49.708;10.816;2023-09-30T06:13:44;14.60;99.90
9383;DHT22;4731;49.708;10.816;2023-09-30T06:16:13;14.80;99.90
9383;DHT22;4731;49.708;10.816;2023-09-30T06:18:41;16.40;99.90
9383;DHT22;4731;49.708;10.816;2023-09-30T06:21:10;15.10;99.90
9383;DHT22;4731;49.708;10.816;2023-09-30T06:23:37;15.20;99.90
9383;DHT22;4731;49.708;10.816;2023-09-30T06:26:04;17.40;99.90
9383;DHT22;4731;49.708;10.816;2023-09-30T06:28:31;15.80;99.90
9383;DHT22;4731;49.708;10.816;2023-09-30T06:30:59;16.10;99.90
9383;DHT22;4731;49.708;10.816;2023-09-30T06:33:27;16.30;99.90
9383;DHT22;4731;49.708;10.816;2023-09-30T06:35:55;16.40;99.90
9383;DHT22;4731;49.708;10.816;2023-09-30T06:38:22;16.70;99.90
9383;DHT22;4731;49.708;10.816;2023-09-30T06:40:48;16.70;99.90
9383;DHT22;4731;49.708;10.816;2023-09-30T06:43:16;17.00;99.90
9383;DHT22;4731;49.708;10.816;2023-09-30T06:45:43;18.10;99.90
9383;DHT22;4731;49.708;10.816;2023-09-30T06:48:11;17.50;99.90
9383;DHT22;4731;49.708;10.816;2023-09-30T06:50:43;17.70;99.90
9383;DHT22;4731;49.708;10.816;2023-09-30T06:53:10;17.60;99.90
9383;DHT22;4731;49.708;10.816;2023-09-30T06:55:38;17.70;99.90
9383;DHT22;4731;49.708;10.816;2023-09-30T06:58:06;17.20;99.90
9383;DHT22;4731;49.708;10.816;2023-09-30T07:00:34;17.20;99.90
9383;DHT22;4731;49.708;10.816;2023-09-30T07:03:01;17.20;99.90
9383;DHT22;4731;49.708;10.816;2023-09-30T07:05:28;17.50;99.90
9383;DHT22;4731;49.708;10.816;2023-09-30T07:07:57;17.90;99.90
9383;DHT22;4731;49.708;10.816;2023-09-30T07:10:24;18.90;99.90
9383;DHT22;4731;49.708;10.816;2023-09-30T07:12:51;19.90;99.90
9383;DHT22;4731;49.708;10.816;2023-09-30T07:15:18;20.30;99.90
9383;DHT22;4731;49.708;10.816;2023-09-30T07:17:44;20.30;99.90
9383;DHT22;4731;49.708;10.816;2023-09-30T07:20:13;20.10;99.90
9383;DHT22;4731;49.708;10.816;2023-09-30T07:22:40;19.70;99.90
9383;DHT22;4731;49.708;10.816;2023-09-30T07:25:09;19.00;99.90
9383;DHT22;4731;49.708;10.816;2023-09-30T07:27:36;19.00;99.90
9383;DHT22;4731;49.708;10.816;2023-09-30T07:30:03;18.20;99.90
9383;DHT22;4731;49.708;10.816;2023-09-30T07:32:32;18.10;99.90
9383;DHT22;4731;49.708;10.816;2023-09-30T07:34:59;18.20;99.90
9383;DHT22;4731;49.708;10.816;2023-09-30T07:37:25;18.30;99.90
9383;DHT22;4731;49.708;10.816;2023-09-30T07:39:52;18.50;99.90
9383;DHT22;4731;49.708;10.816;2023-09-30T07:42:20;19.70;99.90
9383;DHT22;4731;49.708;10.816;2023-09-30T07:44:48;20.90;99.90
9383;DHT22;4731;49.708;10.816;2023-09-30T07:47:15;22.00;99.90
9383;DHT22;4731;49.708;10.816;2023-09-30T07:49:42;22.70;99.90
9383;DHT22;4731;49.708;10.816;2023-09-30T07:52:08;23.00;99.90
9383;DHT22;4731;49.708;10.816;2023-09-30T07:54:36;24.70;99.90
9383;DHT22;4731;49.708;10.816;2023-09-30T07:57:03;25.10;99.90
9383;DHT22;4731;49.708;10.816;2023-09-30T07:59:31;24.30;99.90
9383;DHT22;4731;49.708;10.816;2023-09-30T08:01:58;23.70;99.90
9383;DHT22;4731;49.708;10.816;2023-09-30T08:04:25;23.50;99.90
9383;DHT22;4731;49.708;10.816;2023-09-30T08:06:52;24.20;99.90
9383;DHT22;4731;49.708;10.816;2023-09-30T08:09:19;24.40;99.90
9383;DHT22;4731;49.708;10.816;2023-09-30T08:11:48;24.60;99.90
9383;DHT22;4731;49.708;10.816;2023-09-30T08:14:15;25.40;99.90
9383;DHT22;4731;49.708;10.816;2023-09-30T08:16:43;26.80;99.90
9383;DHT22;4731;49.708;10.816;2023-09-30T08:19:10;27.10;99.90
9383;DHT22;4731;49.708;10.816;2023-09-30T08:21:37;29.00;99.90
9383;DHT22;4731;49.708;10.816;2023-09-30T08:24:04;30.60;99.90
9383;DHT22;4731;49.708;10.816;2023-09-30T08:26:31;31.10;99.90
9383;DHT22;4731;49.708;10.816;2023-09-30T08:28:58;30.10;99.90
9383;DHT22;4731;49.708;10.816;2023-09-30T08:31:25;30.10;99.90
9383;DHT22;4731;49.708;10.816;2023-09-30T08:33:53;31.40;99.90
9383;DHT22;4731;49.708;10.816;2023-09-30T08:36:20;32.50;99.90
9383;DHT22;4731;49.708;10.816;2023-09-30T08:38:47;32.90;99.90
9383;DHT22;4731;49.708;10.816;2023-09-30T08:41:23;32.50;99.90
9383;DHT22;4731;49.708;10.816;2023-09-30T08:43:51;31.50;99.90
9383;DHT22;4731;49.708;10.816;2023-09-30T08:46:21;29.40;99.90
9383;DHT22;4731;49.708;10.816;2023-09-30T08:48:52;29.30;99.90
9383;DHT22;4731;49.708;10.816;2023-09-30T08:51:20;29.10;99.90
9383;DHT22;4731;49.708;10.816;2023-09-30T08:53:47;28.90;99.90
9383;DHT22;4731;49.708;10.816;2023-09-30T08:56:16;29.10;99.90
9383;DHT22;4731;49.708;10.816;2023-09-30T08:58:43;28.90;99.90
9383;DHT22;4731;49.708;10.816;2023-09-30T09:01:10;28.90;99.90
9383;DHT22;4731;49.708;10.816;2023-09-30T09:03:38;27.60;99.90
9383;DHT22;4731;49.708;10.816;2023-09-30T09:06:07;29.00;99.90
9383;DHT22;4731;49.708;10.816;2023-09-30T09:08:34;31.10;99.90
9383;DHT22;4731;49.708;10.816;2023-09-30T09:11:01;31.10;99.90
9383;DHT22;4731;49.708;10.816;2023-09-30T09:13:45;30.70;99.90
9383;DHT22;4731;49.708;10.816;2023-09-30T09:16:14;32.30;99.90
9383;DHT22;4731;49.708;10.816;2023-09-30T09:18:43;32.30;99.90
9383;DHT22;4731;49.708;10.816;2023-09-30T09:21:15;33.30;99.90
9383;DHT22;4731;49.708;10.816;2023-09-30T09:23:44;34.60;99.90
9383;DHT22;4731;49.708;10.816;2023-09-30T09:26:11;35.50;98.90
9383;DHT22;4731;49.708;10.816;2023-09-30T09:28:39;36.80;96.20
9383;DHT22;4731;49.708;10.816;2023-09-30T09:31:20;35.60;93.50
9383;DHT22;4731;49.708;10.816;2023-09-30T09:33:48;35.40;93.40
9383;DHT22;4731;49.708;10.816;2023-09-30T09:36:17;37.20;92.80
9383;DHT22;4731;49.708;10.816;2023-09-30T09:38:45;38.60;90.10
9383;DHT22;4731;49.708;10.816;2023-09-30T09:41:13;39.60;80.20
9383;DHT22;4731;49.708;10.816;2023-09-30T09:43:41;40.00;77.40
9383;DHT22;4731;49.708;10.816;2023-09-30T09:46:08;39.70;75.00
9383;DHT22;4731;49.708;10.816;2023-09-30T09:48:36;37.90;76.30
9383;DHT22;4731;49.708;10.816;2023-09-30T09:51:04;37.20;79.90
9383;DHT22;4731;49.708;10.816;2023-09-30T09:53:36;36.60;78.90
9383;DHT22;4731;49.708;10.816;2023-09-30T09:56:03;35.00;78.50
9383;DHT22;4731;49.708;10.816;2023-09-30T09:58:33;33.30;81.70
9383;DHT22;4731;49.708;10.816;2023-09-30T10:01:01;32.00;87.50
9383;DHT22;4731;49.708;10.816;2023-09-30T10:03:28;30.50;91.70
9383;DHT22;4731;49.708;10.816;2023-09-30T10:05:55;29.70;93.00
9383;DHT22;4731;49.708;10.816;2023-09-30T10:08:29;29.00;95.10
9383;DHT22;4731;49.708;10.816;2023-09-30T10:10:59;29.40;96.40
9383;DHT22;4731;49.708;10.816;2023-09-30T10:13:51;28.90;96.60
9383;DHT22;4731;49.708;10.816;2023-09-30T10:19:22;25.40;99.60
9383;DHT22;4731;49.708;10.816;2023-09-30T10:22:20;24.20;99.90
9383;DHT22;4731;49.708;10.816;2023-09-30T10:24:51;23.30;99.90
9383;DHT22;4731;49.708;10.816;2023-09-30T10:27:33;22.80;99.90
9383;DHT22;4731;49.708;10.816;2023-09-30T10:30:09;21.90;99.90
9383;DHT22;4731;49.708;10.816;2023-09-30T10:33:10;21.40;99.90
9383;DHT22;4731;49.708;10.816;2023-09-30T10:35:47;21.00;99.90
9383;DHT22;4731;49.708;10.816;2023-09-30T10:38:36;21.30;99.90
9383;DHT22;4731;49.708;10.816;2023-09-30T10:41:03;21.20;99.90
9383;DHT22;4731;49.708;10.816;2023-09-30T10:43:33;21.30;99.90
9383;DHT22;4731;49.708;10.816;2023-09-30T10:46:01;21.50;99.90
9383;DHT22;4731;49.708;10.816;2023-09-30T10:48:37;22.00;99.90
9383;DHT22;4731;49.708;10.816;2023-09-30T10:51:13;21.90;99.90
9383;DHT22;4731;49.708;10.816;2023-09-30T10:53:46;21.70;99.90
9383;DHT22;4731;49.708;10.816;2023-09-30T10:56:14;21.70;99.90
9383;DHT22;4731;49.708;10.816;2023-09-30T10:58:43;22.10;99.90
9383;DHT22;4731;49.708;10.816;2023-09-30T11:01:13;21.80;99.90
9383;DHT22;4731;49.708;10.816;2023-09-30T11:03:41;21.70;99.90
9383;DHT22;4731;49.708;10.816;2023-09-30T11:06:11;21.90;99.90
9383;DHT22;4731;49.708;10.816;2023-09-30T11:08:45;22.20;99.90
9383;DHT22;4731;49.708;10.816;2023-09-30T11:11:13;22.90;99.90
9383;DHT22;4731;49.708;10.816;2023-09-30T11:13:40;23.40;99.90
9383;DHT22;4731;49.708;10.816;2023-09-30T11:16:09;24.80;99.90
9383;DHT22;4731;49.708;10.816;2023-09-30T11:18:35;23.90;99.90
9383;DHT22;4731;49.708;10.816;2023-09-30T11:21:05;24.40;99.90
9383;DHT22;4731;49.708;10.816;2023-09-30T11:23:32;24.90;99.90
9383;DHT22;4731;49.708;10.816;2023-09-30T11:26:00;25.50;99.90
9383;DHT22;4731;49.708;10.816;2023-09-30T11:28:36;26.70;99.90
9383;DHT22;4731;49.708;10.816;2023-09-30T11:31:09;27.90;99.90
9383;DHT22;4731;49.708;10.816;2023-09-30T11:33:53;30.30;99.90
9383;DHT22;4731;49.708;10.816;2023-09-30T11:36:23;32.00;96.40
9383;DHT22;4731;49.708;10.816;2023-09-30T11:38:51;33.60;92.50
9383;DHT22;4731;49.708;10.816;2023-09-30T11:41:19;35.00;91.00
9383;DHT22;4731;49.708;10.816;2023-09-30T11:44:03;35.40;85.90
9383;DHT22;4731;49.708;10.816;2023-09-30T11:46:47;36.20;84.20
9383;DHT22;4731;49.708;10.816;2023-09-30T11:49:24;37.20;78.80
9383;DHT22;4731;49.708;10.816;2023-09-30T11:51:51;38.10;75.80
9383;DHT22;4731;49.708;10.816;2023-09-30T11:54:18;38.40;71.00
9383;DHT22;4731;49.708;10.816;2023-09-30T11:56:46;37.10;72.10
9383;DHT22;4731;49.708;10.816;2023-09-30T11:59:13;36.30;70.10
9383;DHT22;4731;49.708;10.816;2023-09-30T12:01:41;35.40;71.80
9383;DHT22;4731;49.708;10.816;2023-09-30T12:04:08;35.10;74.00
9383;DHT22;4731;49.708;10.816;2023-09-30T12:06:37;36.50;72.20
9383;DHT22;4731;49.708;10.816;2023-09-30T12:09:04;37.40;72.70
9383;DHT22;4731;49.708;10.816;2023-09-30T12:11:31;37.10;70.50
9383;DHT22;4731;49.708;10.816;2023-09-30T12:13:57;37.90;69.70
9383;DHT22;4731;49.708;10.816;2023-09-30T12:16:24;37.00;67.00
9383;DHT22;4731;49.708;10.816;2023-09-30T12:18:52;37.20;69.20
9383;DHT22;4731;49.708;10.816;2023-09-30T12:21:19;36.70;68.50
9383;DHT22;4731;49.708;10.816;2023-09-30T12:23:47;36.90;66.50
9383;DHT22;4731;49.708;10.816;2023-09-30T12:26:14;35.70;69.10
9383;DHT22;4731;49.708;10.816;2023-09-30T12:28:43;36.70;68.20
9383;DHT22;4731;49.708;10.816;2023-09-30T12:31:10;37.20;66.40
9383;DHT22;4731;49.708;10.816;2023-09-30T12:33:36;35.70;65.80
9383;DHT22;4731;49.708;10.816;2023-09-30T12:36:05;36.10;66.20
9383;DHT22;4731;49.708;10.816;2023-09-30T12:38:33;35.30;66.30
9383;DHT22;4731;49.708;10.816;2023-09-30T12:41:00;35.70;67.70
9383;DHT22;4731;49.708;10.816;2023-09-30T12:43:27;37.10;66.40
9383;DHT22;4731;49.708;10.816;2023-09-30T12:45:53;36.10;67.40
9383;DHT22;4731;49.708;10.816;2023-09-30T12:48:20;36.20;66.60
9383;DHT22;4731;49.708;10.816;2023-09-30T12:50:47;36.30;66.60
9383;DHT22;4731;49.708;10.816;2023-09-30T12:53:15;35.60;66.10
9383;DHT22;4731;49.708;10.816;2023-09-30T12:55:42;35.50;66.60
9383;DHT22;4731;49.708;10.816;2023-09-30T12:58:09;36.90;67.40
9383;DHT22;4731;49.708;10.816;2023-09-30T13:00:36;36.90;65.50
9383;DHT22;4731;49.708;10.816;2023-09-30T13:03:03;35.70;66.90
9383;DHT22;4731;49.708;10.816;2023-09-30T13:05:30;36.10;67.50
9383;DHT22;4731;49.708;10.816;2023-09-30T13:07:57;36.00;68.50
9383;DHT22;4731;49.708;10.816;2023-09-30T13:10:27;36.70;66.60
9383;DHT22;4731;49.708;10.816;2023-09-30T13:12:55;37.00;66.40
9383;DHT22;4731;49.708;10.816;2023-09-30T13:15:23;37.00;66.60
9383;DHT22;4731;49.708;10.816;2023-09-30T13:17:51;35.40;69.20
9383;DHT22;4731;49.708;10.816;2023-09-30T13:20:18;34.60;70.00
9383;DHT22;4731;49.708;10.816;2023-09-30T13:22:45;34.40;69.50
9383;DHT22;4731;49.708;10.816;2023-09-30T13:25:13;35.50;70.10
9383;DHT22;4731;49.708;10.816;2023-09-30T13:27:42;36.20;67.70
9383;DHT22;4731;49.708;10.816;2023-09-30T13:30:10;36.70;66.60
9383;DHT22;4731;49.708;10.816;2023-09-30T13:32:37;35.70;67.70
9383;DHT22;4731;49.708;10.816;2023-09-30T13:35:04;35.20;67.20
9383;DHT22;4731;49.708;10.816;2023-09-30T13:37:32;35.40;68.40
9383;DHT22;4731;49.708;10.816;2023-09-30T13:40:00;35.40;70.20
9383;DHT22;4731;49.708;10.816;2023-09-30T13:42:27;35.30;67.30
9383;DHT22;4731;49.708;10.816;2023-09-30T13:44:57;34.50;69.80
9383;DHT22;4731;49.708;10.816;2023-09-30T13:47:25;33.40;68.70
9383;DHT22;4731;49.708;10.816;2023-09-30T13:49:52;32.00;70.80
9383;DHT22;4731;49.708;10.816;2023-09-30T13:52:20;30.40;74.70
9383;DHT22;4731;49.708;10.816;2023-09-30T13:54:47;29.60;79.00
9383;DHT22;4731;49.708;10.816;2023-09-30T13:57:14;29.10;78.70
9383;DHT22;4731;49.708;10.816;2023-09-30T13:59:41;29.40;79.60
9383;DHT22;4731;49.708;10.816;2023-09-30T14:02:10;29.90;80.00
9383;DHT22;4731;49.708;10.816;2023-09-30T14:04:38;30.70;79.60
9383;DHT22;4731;49.708;10.816;2023-09-30T14:07:04;29.90;77.60
9383;DHT22;4731;49.708;10.816;2023-09-30T14:09:34;29.00;80.40
9383;DHT22;4731;49.708;10.816;2023-09-30T14:12:02;29.30;83.10
9383;DHT22;4731;49.708;10.816;2023-09-30T14:14:31;29.70;81.80
9383;DHT22;4731;49.708;10.816;2023-09-30T14:16:58;30.40;81.60
9383;DHT22;4731;49.708;10.816;2023-09-30T14:19:26;30.90;81.50
9383;DHT22;4731;49.708;10.816;2023-09-30T14:21:54;31.30;80.30
9383;DHT22;4731;49.708;10.816;2023-09-30T14:24:22;30.20;80.40
9383;DHT22;4731;49.708;10.816;2023-09-30T14:26:48;28.10;85.10
9383;DHT22;4731;49.708;10.816;2023-09-30T14:29:15;26.20;91.80
9383;DHT22;4731;49.708;10.816;2023-09-30T14:31:42;24.70;95.20
9383;DHT22;4731;49.708;10.816;2023-09-30T14:34:09;23.60;99.00
9383;DHT22;4731;49.708;10.816;2023-09-30T14:36:37;23.00;99.90
9383;DHT22;4731;49.708;10.816;2023-09-30T14:39:04;22.80;99.90
9383;DHT22;4731;49.708;10.816;2023-09-30T14:41:31;22.50;99.90
9383;DHT22;4731;49.708;10.816;2023-09-30T14:43:58;22.60;99.90
9383;DHT22;4731;49.708;10.816;2023-09-30T14:46:25;22.60;99.90
9383;DHT22;4731;49.708;10.816;2023-09-30T14:48:51;22.60;99.90
9383;DHT22;4731;49.708;10.816;2023-09-30T14:51:18;22.70;99.90
9383;DHT22;4731;49.708;10.816;2023-09-30T14:53:50;22.80;99.90
9383;DHT22;4731;49.708;10.816;2023-09-30T14:56:17;22.80;99.90
9383;DHT22;4731;49.708;10.816;2023-09-30T14:58:47;22.50;99.90
9383;DHT22;4731;49.708;10.816;2023-09-30T15:01:14;22.20;99.90
9383;DHT22;4731;49.708;10.816;2023-09-30T15:03:41;22.00;99.90
9383;DHT22;4731;49.708;10.816;2023-09-30T15:06:09;21.70;99.90
9383;DHT22;4731;49.708;10.816;2023-09-30T15:08:36;21.70;99.90
9383;DHT22;4731;49.708;10.816;2023-09-30T15:11:04;21.70;99.90
9383;DHT22;4731;49.708;10.816;2023-09-30T15:13:32;21.70;99.90
9383;DHT22;4731;49.708;10.816;2023-09-30T15:15:58;21.70;99.90
9383;DHT22;4731;49.708;10.816;2023-09-30T15:18:25;21.50;99.90
9383;DHT22;4731;49.708;10.816;2023-09-30T15:20:52;21.40;99.90
9383;DHT22;4731;49.708;10.816;2023-09-30T15:23:19;21.20;99.90
9383;DHT22;4731;49.708;10.816;2023-09-30T15:25:46;21.00;99.90
9383;DHT22;4731;49.708;10.816;2023-09-30T15:28:14;21.50;99.90
9383;DHT22;4731;49.708;10.816;2023-09-30T15:30:43;20.60;99.90
9383;DHT22;4731;49.708;10.816;2023-09-30T15:33:10;20.40;99.90
9383;DHT22;4731;49.708;10.816;2023-09-30T15:35:36;20.00;99.90
9383;DHT22;4731;49.708;10.816;2023-09-30T15:38:03;19.80;99.90
9383;DHT22;4731;49.708;10.816;2023-09-30T15:40:31;19.60;99.90
9383;DHT22;4731;49.708;10.816;2023-09-30T15:42:58;19.60;99.90
9383;DHT22;4731;49.708;10.816;2023-09-30T15:45:27;19.70;99.90
9383;DHT22;4731;49.708;10.816;2023-09-30T15:47:54;19.70;99.90
9383;DHT22;4731;49.708;10.816;2023-09-30T15:50:21;19.60;99.90
9383;DHT22;4731;49.708;10.816;2023-09-30T15:52:48;19.70;99.90
9383;DHT22;4731;49.708;10.816;2023-09-30T15:55:15;19.70;99.90